sensor_id;sensor_type;location;lat;lon;timestamp;P1;durP1;ratioP1;P2;durP2;ratioP2
2760;SDS011;15420;48.636;9.798;2022-11-20T00:00:28;4.30;;;2.97;;
2760;SDS011;15420;48.636;9.798;2022-11-20T00:02:56;2.87;;;2.53;;
2760;SDS011;15420;48.636;9.798;2022-11-20T00:05:22;3.70;;;2.63;;
2760;SDS011;15420;48.636;9.798;2022-11-20T00:07:49;2.63;;;2.30;;
2760;SDS011;15420;48.636;9.798;2022-11-20T00:10:18;2.87;;;2.53;;
2760;SDS011;15420;48.636;9.798;2022-11-20T00:12:46;3.03;;;2.60;;
2760;SDS011;15420;48.636;9.798;2022-11-20T00:15:12;3.00;;;2.63;;
2760;SDS011;15420;48.636;9.798;2022-11-20T00:17:39;3.63;;;2.37;;
2760;SDS011;15420;48.636;9.798;2022-11-20T00:20:05;2.60;;;2.40;;
2760;SDS011;15420;48.636;9.798;2022-11-20T00:22:34;3.27;;;2.97;;
2760;SDS011;15420;48.636;9.798;2022-11-20T00:25:00;3.13;;;2.30;;
2760;SDS011;15420;48.636;9.798;2022-11-20T00:27:26;4.60;;;3.13;;
2760;SDS011;15420;48.636;9.798;2022-11-20T00:29:53;2.80;;;2.23;;
2760;SDS011;15420;48.636;9.798;2022-11-20T00:32:21;3.10;;;2.67;;
2760;SDS011;15420;48.636;9.798;2022-11-20T00:34:47;2.47;;;2.23;;
2760;SDS011;15420;48.636;9.798;2022-11-20T00:37:13;3.30;;;3.00;;
2760;SDS011;15420;48.636;9.798;2022-11-20T00:39:40;2.90;;;2.70;;
2760;SDS011;15420;48.636;9.798;2022-11-20T00:42:06;3.13;;;2.90;;
2760;SDS011;15420;48.636;9.798;2022-11-20T00:44:34;4.20;;;2.70;;
2760;SDS011;15420;48.636;9.798;2022-11-20T00:47:03;2.33;;;2.23;;
2760;SDS011;15420;48.636;9.798;2022-11-20T00:49:31;4.57;;;3.30;;
2760;SDS011;15420;48.636;9.798;2022-11-20T00:51:59;3.60;;;3.03;;
2760;SDS011;15420;48.636;9.798;2022-11-20T00:54:28;3.43;;;2.70;;
2760;SDS011;15420;48.636;9.798;2022-11-20T00:56:54;4.20;;;2.70;;
2760;SDS011;15420;48.636;9.798;2022-11-20T00:59:20;3.10;;;2.37;;
2760;SDS011;15420;48.636;9.798;2022-11-20T01:01:46;4.50;;;2.13;;
2760;SDS011;15420;48.636;9.798;2022-11-20T01:04:14;3.80;;;2.67;;
2760;SDS011;15420;48.636;9.798;2022-11-20T01:06:40;2.47;;;2.27;;
2760;SDS011;15420;48.636;9.798;2022-11-20T01:09:12;3.23;;;2.40;;
2760;SDS011;15420;48.636;9.798;2022-11-20T01:11:43;2.70;;;2.50;;
2760;SDS011;15420;48.636;9.798;2022-11-20T01:14:11;2.67;;;2.17;;
2760;SDS011;15420;48.636;9.798;2022-11-20T01:16:41;2.77;;;2.57;;
2760;SDS011;15420;48.636;9.798;2022-11-20T01:19:10;3.83;;;2.23;;
2760;SDS011;15420;48.636;9.798;2022-11-20T01:21:39;3.13;;;2.83;;
2760;SDS011;15420;48.636;9.798;2022-11-20T01:24:10;3.20;;;2.53;;
2760;SDS011;15420;48.636;9.798;2022-11-20T01:26:39;3.53;;;2.90;;
2760;SDS011;15420;48.636;9.798;2022-11-20T01:29:07;2.83;;;2.33;;
2760;SDS011;15420;48.636;9.798;2022-11-20T01:31:42;2.50;;;2.20;;
2760;SDS011;15420;48.636;9.798;2022-11-20T01:34:10;3.60;;;1.70;;
2760;SDS011;15420;48.636;9.798;2022-11-20T01:36:38;2.70;;;2.00;;
2760;SDS011;15420;48.636;9.798;2022-11-20T01:39:07;2.17;;;1.97;;
2760;SDS011;15420;48.636;9.798;2022-11-20T01:41:39;2.43;;;2.20;;
2760;SDS011;15420;48.636;9.798;2022-11-20T01:47:13;2.10;;;2.00;;
2760;SDS011;15420;48.636;9.798;2022-11-20T01:49:52;2.50;;;2.30;;
2760;SDS011;15420;48.636;9.798;2022-11-20T01:52:45;4.00;;;3.00;;
2760;SDS011;15420;48.636;9.798;2022-11-20T01:55:20;2.03;;;1.90;;
2760;SDS011;15420;48.636;9.798;2022-11-20T01:57:49;2.90;;;2.60;;
2760;SDS011;15420;48.636;9.798;2022-11-20T02:00:19;2.27;;;2.10;;
2760;SDS011;15420;48.636;9.798;2022-11-20T02:02:47;2.10;;;2.00;;
2760;SDS011;15420;48.636;9.798;2022-11-20T02:05:25;1.90;;;1.80;;
2760;SDS011;15420;48.636;9.798;2022-11-20T02:08:08;3.60;;;2.07;;
2760;SDS011;15420;48.636;9.798;2022-11-20T02:10:37;1.70;;;1.60;;
2760;SDS011;15420;48.636;9.798;2022-11-20T02:13:03;2.00;;;1.80;;
2760;SDS011;15420;48.636;9.798;2022-11-20T02:15:49;2.87;;;2.17;;
2760;SDS011;15420;48.636;9.798;2022-11-20T02:18:16;2.10;;;1.80;;
2760;SDS011;15420;48.636;9.798;2022-11-20T02:20:47;1.90;;;1.70;;
2760;SDS011;15420;48.636;9.798;2022-11-20T02:25:57;2.70;;;2.07;;
2760;SDS011;15420;48.636;9.798;2022-11-20T02:28:28;5.13;;;1.60;;
2760;SDS011;15420;48.636;9.798;2022-11-20T02:30:54;1.57;;;1.47;;
2760;SDS011;15420;48.636;9.798;2022-11-20T02:33:22;3.13;;;2.00;;
2760;SDS011;15420;48.636;9.798;2022-11-20T02:35:51;2.00;;;1.90;;
2760;SDS011;15420;48.636;9.798;2022-11-20T02:38:19;2.07;;;1.87;;
2760;SDS011;15420;48.636;9.798;2022-11-20T02:40:45;3.53;;;2.90;;
2760;SDS011;15420;48.636;9.798;2022-11-20T02:43:12;3.00;;;1.83;;
2760;SDS011;15420;48.636;9.798;2022-11-20T02:45:40;1.80;;;1.70;;
2760;SDS011;15420;48.636;9.798;2022-11-20T02:48:08;1.90;;;1.70;;
2760;SDS011;15420;48.636;9.798;2022-11-20T02:50:38;1.67;;;1.57;;
2760;SDS011;15420;48.636;9.798;2022-11-20T02:53:05;1.90;;;1.80;;
2760;SDS011;15420;48.636;9.798;2022-11-20T02:55:34;1.83;;;1.53;;
2760;SDS011;15420;48.636;9.798;2022-11-20T02:58:05;1.90;;;1.80;;
2760;SDS011;15420;48.636;9.798;2022-11-20T03:00:31;2.23;;;1.83;;
2760;SDS011;15420;48.636;9.798;2022-11-20T03:03:00;1.40;;;1.30;;
2760;SDS011;15420;48.636;9.798;2022-11-20T03:05:27;2.53;;;1.40;;
2760;SDS011;15420;48.636;9.798;2022-11-20T03:07:55;2.60;;;1.90;;
2760;SDS011;15420;48.636;9.798;2022-11-20T03:10:21;2.30;;;1.60;;
2760;SDS011;15420;48.636;9.798;2022-11-20T03:12:52;1.50;;;1.40;;
2760;SDS011;15420;48.636;9.798;2022-11-20T03:15:20;2.87;;;2.00;;
2760;SDS011;15420;48.636;9.798;2022-11-20T03:17:52;2.23;;;1.67;;
2760;SDS011;15420;48.636;9.798;2022-11-20T03:20:22;2.07;;;1.87;;
2760;SDS011;15420;48.636;9.798;2022-11-20T03:22:50;2.40;;;1.63;;
2760;SDS011;15420;48.636;9.798;2022-11-20T03:25:19;1.80;;;1.70;;
2760;SDS011;15420;48.636;9.798;2022-11-20T03:27:46;1.50;;;1.40;;
2760;SDS011;15420;48.636;9.798;2022-11-20T03:30:14;3.00;;;1.80;;
2760;SDS011;15420;48.636;9.798;2022-11-20T03:32:40;1.53;;;1.43;;
2760;SDS011;15420;48.636;9.798;2022-11-20T03:35:07;2.50;;;2.30;;
2760;SDS011;15420;48.636;9.798;2022-11-20T03:37:33;2.40;;;2.10;;
2760;SDS011;15420;48.636;9.798;2022-11-20T03:40:02;1.90;;;1.60;;
2760;SDS011;15420;48.636;9.798;2022-11-20T03:42:28;1.80;;;1.70;;
2760;SDS011;15420;48.636;9.798;2022-11-20T03:45:18;2.13;;;1.50;;
2760;SDS011;15420;48.636;9.798;2022-11-20T03:47:46;1.93;;;1.80;;
2760;SDS011;15420;48.636;9.798;2022-11-20T03:50:15;1.73;;;1.50;;
2760;SDS011;15420;48.636;9.798;2022-11-20T03:52:43;1.83;;;1.73;;
2760;SDS011;15420;48.636;9.798;2022-11-20T03:55:10;1.80;;;1.53;;
2760;SDS011;15420;48.636;9.798;2022-11-20T03:57:38;1.80;;;1.70;;
2760;SDS011;15420;48.636;9.798;2022-11-20T04:00:07;1.70;;;1.60;;
2760;SDS011;15420;48.636;9.798;2022-11-20T04:02:36;2.37;;;1.97;;
2760;SDS011;15420;48.636;9.798;2022-11-20T04:05:02;1.50;;;1.40;;
2760;SDS011;15420;48.636;9.798;2022-11-20T04:07:31;1.60;;;1.50;;
2760;SDS011;15420;48.636;9.798;2022-11-20T04:10:01;2.50;;;1.47;;
2760;SDS011;15420;48.636;9.798;2022-11-20T04:12:31;1.90;;;1.80;;
2760;SDS011;15420;48.636;9.798;2022-11-20T04:15:02;2.13;;;1.70;;
2760;SDS011;15420;48.636;9.798;2022-11-20T04:17:28;2.33;;;1.77;;
2760;SDS011;15420;48.636;9.798;2022-11-20T04:19:54;2.00;;;1.83;;
2760;SDS011;15420;48.636;9.798;2022-11-20T04:22:22;2.40;;;2.20;;
2760;SDS011;15420;48.636;9.798;2022-11-20T04:24:49;4.93;;;2.10;;
2760;SDS011;15420;48.636;9.798;2022-11-20T04:27:15;2.07;;;1.97;;
2760;SDS011;15420;48.636;9.798;2022-11-20T04:29:41;4.00;;;2.00;;
2760;SDS011;15420;48.636;9.798;2022-11-20T04:32:07;2.17;;;1.97;;
2760;SDS011;15420;48.636;9.798;2022-11-20T04:34:33;2.30;;;1.97;;
2760;SDS011;15420;48.636;9.798;2022-11-20T04:37:00;2.43;;;2.20;;
2760;SDS011;15420;48.636;9.798;2022-11-20T04:39:28;2.13;;;2.00;;
2760;SDS011;15420;48.636;9.798;2022-11-20T04:41:54;2.30;;;2.10;;
2760;SDS011;15420;48.636;9.798;2022-11-20T04:44:39;3.63;;;2.30;;
2760;SDS011;15420;48.636;9.798;2022-11-20T04:47:07;2.17;;;1.97;;
2760;SDS011;15420;48.636;9.798;2022-11-20T04:49:33;2.33;;;2.00;;
2760;SDS011;15420;48.636;9.798;2022-11-20T04:52:02;3.27;;;2.63;;
2760;SDS011;15420;48.636;9.798;2022-11-20T04:54:30;2.93;;;2.03;;
2760;SDS011;15420;48.636;9.798;2022-11-20T04:56:58;2.57;;;2.37;;
2760;SDS011;15420;48.636;9.798;2022-11-20T04:59:24;2.50;;;2.27;;
2760;SDS011;15420;48.636;9.798;2022-11-20T05:01:53;3.00;;;2.30;;
2760;SDS011;15420;48.636;9.798;2022-11-20T05:04:21;3.13;;;2.40;;
2760;SDS011;15420;48.636;9.798;2022-11-20T05:06:49;2.20;;;1.93;;
2760;SDS011;15420;48.636;9.798;2022-11-20T05:09:15;2.80;;;2.57;;
2760;SDS011;15420;48.636;9.798;2022-11-20T05:11:41;3.03;;;2.80;;
2760;SDS011;15420;48.636;9.798;2022-11-20T05:14:07;4.20;;;3.80;;
2760;SDS011;15420;48.636;9.798;2022-11-20T05:16:36;4.20;;;3.80;;
2760;SDS011;15420;48.636;9.798;2022-11-20T05:19:02;4.43;;;4.13;;
2760;SDS011;15420;48.636;9.798;2022-11-20T05:21:29;5.03;;;4.60;;
2760;SDS011;15420;48.636;9.798;2022-11-20T05:23:57;5.07;;;4.57;;
2760;SDS011;15420;48.636;9.798;2022-11-20T05:26:25;4.80;;;3.87;;
2760;SDS011;15420;48.636;9.798;2022-11-20T05:28:53;3.80;;;3.53;;
2760;SDS011;15420;48.636;9.798;2022-11-20T05:31:23;3.80;;;3.50;;
2760;SDS011;15420;48.636;9.798;2022-11-20T05:33:52;4.40;;;4.10;;
2760;SDS011;15420;48.636;9.798;2022-11-20T05:36:21;4.70;;;4.30;;
2760;SDS011;15420;48.636;9.798;2022-11-20T05:38:47;4.23;;;3.90;;
2760;SDS011;15420;48.636;9.798;2022-11-20T05:41:15;3.70;;;3.50;;
2760;SDS011;15420;48.636;9.798;2022-11-20T05:43:43;4.03;;;3.20;;
2760;SDS011;15420;48.636;9.798;2022-11-20T05:46:13;3.10;;;2.90;;
2760;SDS011;15420;48.636;9.798;2022-11-20T05:48:42;2.70;;;2.50;;
2760;SDS011;15420;48.636;9.798;2022-11-20T05:51:10;3.30;;;3.00;;
2760;SDS011;15420;48.636;9.798;2022-11-20T05:53:40;3.50;;;3.20;;
2760;SDS011;15420;48.636;9.798;2022-11-20T05:56:10;4.37;;;3.60;;
2760;SDS011;15420;48.636;9.798;2022-11-20T05:58:38;3.83;;;3.47;;
2760;SDS011;15420;48.636;9.798;2022-11-20T06:01:12;4.07;;;3.70;;
2760;SDS011;15420;48.636;9.798;2022-11-20T06:03:44;4.33;;;2.80;;
2760;SDS011;15420;48.636;9.798;2022-11-20T06:06:15;3.93;;;3.00;;
2760;SDS011;15420;48.636;9.798;2022-11-20T06:08:43;3.70;;;3.37;;
2760;SDS011;15420;48.636;9.798;2022-11-20T06:11:12;2.67;;;2.43;;
2760;SDS011;15420;48.636;9.798;2022-11-20T06:13:41;3.23;;;2.90;;
2760;SDS011;15420;48.636;9.798;2022-11-20T06:16:09;2.10;;;2.00;;
2760;SDS011;15420;48.636;9.798;2022-11-20T06:18:36;2.00;;;1.90;;
2760;SDS011;15420;48.636;9.798;2022-11-20T06:21:06;4.13;;;2.20;;
2760;SDS011;15420;48.636;9.798;2022-11-20T06:23:33;4.40;;;2.90;;
2760;SDS011;15420;48.636;9.798;2022-11-20T06:26:06;4.93;;;3.37;;
2760;SDS011;15420;48.636;9.798;2022-11-20T06:28:36;2.93;;;2.73;;
2760;SDS011;15420;48.636;9.798;2022-11-20T06:31:05;9.30;;;3.90;;
2760;SDS011;15420;48.636;9.798;2022-11-20T06:33:32;5.80;;;3.33;;
2760;SDS011;15420;48.636;9.798;2022-11-20T06:36:02;4.33;;;3.83;;
2760;SDS011;15420;48.636;9.798;2022-11-20T06:38:31;4.27;;;3.33;;
2760;SDS011;15420;48.636;9.798;2022-11-20T06:40:57;4.37;;;3.20;;
2760;SDS011;15420;48.636;9.798;2022-11-20T06:43:23;4.73;;;3.57;;
2760;SDS011;15420;48.636;9.798;2022-11-20T06:45:53;3.83;;;3.47;;
2760;SDS011;15420;48.636;9.798;2022-11-20T06:48:27;3.50;;;3.20;;
2760;SDS011;15420;48.636;9.798;2022-11-20T06:50:54;4.33;;;3.20;;
2760;SDS011;15420;48.636;9.798;2022-11-20T06:53:21;5.97;;;3.43;;
2760;SDS011;15420;48.636;9.798;2022-11-20T06:55:50;3.20;;;2.90;;
2760;SDS011;15420;48.636;9.798;2022-11-20T06:58:17;3.40;;;3.10;;
2760;SDS011;15420;48.636;9.798;2022-11-20T07:00:43;3.93;;;3.00;;
2760;SDS011;15420;48.636;9.798;2022-11-20T07:03:12;3.13;;;2.80;;
2760;SDS011;15420;48.636;9.798;2022-11-20T07:05:38;2.63;;;2.40;;
2760;SDS011;15420;48.636;9.798;2022-11-20T07:08:05;2.60;;;1.80;;
2760;SDS011;15420;48.636;9.798;2022-11-20T07:10:34;2.83;;;2.50;;
2760;SDS011;15420;48.636;9.798;2022-11-20T07:13:01;3.00;;;2.00;;
2760;SDS011;15420;48.636;9.798;2022-11-20T07:15:27;2.37;;;2.17;;
2760;SDS011;15420;48.636;9.798;2022-11-20T07:17:53;2.80;;;2.40;;
2760;SDS011;15420;48.636;9.798;2022-11-20T07:20:24;2.00;;;1.80;;
2760;SDS011;15420;48.636;9.798;2022-11-20T07:22:54;2.00;;;1.57;;
2760;SDS011;15420;48.636;9.798;2022-11-20T07:25:21;4.50;;;3.20;;
2760;SDS011;15420;48.636;9.798;2022-11-20T07:27:48;6.43;;;4.30;;
2760;SDS011;15420;48.636;9.798;2022-11-20T07:30:14;7.07;;;3.70;;
2760;SDS011;15420;48.636;9.798;2022-11-20T07:32:47;6.00;;;3.63;;
2760;SDS011;15420;48.636;9.798;2022-11-20T07:35:17;4.00;;;2.77;;
2760;SDS011;15420;48.636;9.798;2022-11-20T07:37:43;4.50;;;3.40;;
2760;SDS011;15420;48.636;9.798;2022-11-20T07:40:13;2.50;;;2.30;;
2760;SDS011;15420;48.636;9.798;2022-11-20T07:42:50;2.37;;;2.17;;
2760;SDS011;15420;48.636;9.798;2022-11-20T07:45:20;3.40;;;2.23;;
2760;SDS011;15420;48.636;9.798;2022-11-20T07:47:47;2.10;;;1.90;;
2760;SDS011;15420;48.636;9.798;2022-11-20T07:50:14;2.30;;;1.67;;
2760;SDS011;15420;48.636;9.798;2022-11-20T07:52:43;1.97;;;1.77;;
2760;SDS011;15420;48.636;9.798;2022-11-20T07:55:10;1.80;;;1.70;;
2760;SDS011;15420;48.636;9.798;2022-11-20T07:57:36;1.40;;;1.30;;
2760;SDS011;15420;48.636;9.798;2022-11-20T08:00:03;1.70;;;1.60;;
2760;SDS011;15420;48.636;9.798;2022-11-20T08:02:33;1.97;;;1.87;;
2760;SDS011;15420;48.636;9.798;2022-11-20T08:05:04;1.50;;;1.40;;
2760;SDS011;15420;48.636;9.798;2022-11-20T08:07:38;1.60;;;1.50;;
2760;SDS011;15420;48.636;9.798;2022-11-20T08:10:05;1.50;;;1.40;;
2760;SDS011;15420;48.636;9.798;2022-11-20T08:12:35;1.40;;;1.30;;
2760;SDS011;15420;48.636;9.798;2022-11-20T08:15:27;2.00;;;1.43;;
2760;SDS011;15420;48.636;9.798;2022-11-20T08:17:58;3.03;;;2.10;;
2760;SDS011;15420;48.636;9.798;2022-11-20T08:20:34;2.07;;;1.97;;
2760;SDS011;15420;48.636;9.798;2022-11-20T08:23:06;1.90;;;1.80;;
2760;SDS011;15420;48.636;9.798;2022-11-20T08:25:33;2.30;;;2.10;;
2760;SDS011;15420;48.636;9.798;2022-11-20T08:28:01;2.80;;;2.50;;
2760;SDS011;15420;48.636;9.798;2022-11-20T08:30:29;3.20;;;2.70;;
2760;SDS011;15420;48.636;9.798;2022-11-20T08:33:00;2.50;;;2.27;;
2760;SDS011;15420;48.636;9.798;2022-11-20T08:35:37;1.67;;;1.57;;
2760;SDS011;15420;48.636;9.798;2022-11-20T08:38:06;2.10;;;1.90;;
2760;SDS011;15420;48.636;9.798;2022-11-20T08:40:35;2.00;;;1.90;;
2760;SDS011;15420;48.636;9.798;2022-11-20T08:43:03;1.80;;;1.70;;
2760;SDS011;15420;48.636;9.798;2022-11-20T08:45:29;1.70;;;1.60;;
2760;SDS011;15420;48.636;9.798;2022-11-20T08:47:59;1.57;;;1.40;;
2760;SDS011;15420;48.636;9.798;2022-11-20T08:50:28;2.57;;;2.10;;
2760;SDS011;15420;48.636;9.798;2022-11-20T08:53:01;1.37;;;1.30;;
2760;SDS011;15420;48.636;9.798;2022-11-20T08:55:31;1.90;;;1.63;;
2760;SDS011;15420;48.636;9.798;2022-11-20T08:57:57;1.27;;;1.17;;
2760;SDS011;15420;48.636;9.798;2022-11-20T09:00:28;1.70;;;1.60;;
2760;SDS011;15420;48.636;9.798;2022-11-20T09:02:54;1.50;;;1.40;;
2760;SDS011;15420;48.636;9.798;2022-11-20T09:05:20;1.47;;;1.37;;
2760;SDS011;15420;48.636;9.798;2022-11-20T09:07:46;1.50;;;1.40;;
2760;SDS011;15420;48.636;9.798;2022-11-20T09:10:12;1.13;;;1.13;;
2760;SDS011;15420;48.636;9.798;2022-11-20T09:12:38;3.67;;;1.27;;
2760;SDS011;15420;48.636;9.798;2022-11-20T09:15:05;1.60;;;1.50;;
2760;SDS011;15420;48.636;9.798;2022-11-20T09:17:31;1.93;;;1.30;;
2760;SDS011;15420;48.636;9.798;2022-11-20T09:19:57;1.37;;;1.27;;
2760;SDS011;15420;48.636;9.798;2022-11-20T09:22:26;1.70;;;1.50;;
2760;SDS011;15420;48.636;9.798;2022-11-20T09:24:52;1.70;;;1.47;;
2760;SDS011;15420;48.636;9.798;2022-11-20T09:27:18;1.47;;;1.37;;
2760;SDS011;15420;48.636;9.798;2022-11-20T09:29:47;1.50;;;1.40;;
2760;SDS011;15420;48.636;9.798;2022-11-20T09:32:18;1.77;;;1.67;;
2760;SDS011;15420;48.636;9.798;2022-11-20T09:34:46;1.25;;;1.20;;
2760;SDS011;15420;48.636;9.798;2022-11-20T09:37:12;1.47;;;1.37;;
2760;SDS011;15420;48.636;9.798;2022-11-20T09:39:39;1.93;;;1.53;;
2760;SDS011;15420;48.636;9.798;2022-11-20T09:51:04;4.03;;;2.20;;
2760;SDS011;15420;48.636;9.798;2022-11-20T09:56:29;12.50;;;6.53;;
2760;SDS011;15420;48.636;9.798;2022-11-20T09:58:59;7.40;;;4.20;;
2760;SDS011;15420;48.636;9.798;2022-11-20T10:01:33;4.93;;;3.40;;
2760;SDS011;15420;48.636;9.798;2022-11-20T10:09:30;1.43;;;1.33;;
2760;SDS011;15420;48.636;9.798;2022-11-20T10:12:09;1.70;;;1.60;;
2760;SDS011;15420;48.636;9.798;2022-11-20T10:26:17;2.53;;;2.27;;
2760;SDS011;15420;48.636;9.798;2022-11-20T10:28:53;2.13;;;1.50;;
2760;SDS011;15420;48.636;9.798;2022-11-20T10:36:58;2.30;;;2.00;;
2760;SDS011;15420;48.636;9.798;2022-11-20T10:42:34;2.10;;;1.63;;
2760;SDS011;15420;48.636;9.798;2022-11-20T10:47:49;1.70;;;1.60;;
2760;SDS011;15420;48.636;9.798;2022-11-20T10:50:37;1.60;;;1.50;;
2760;SDS011;15420;48.636;9.798;2022-11-20T10:53:27;1.40;;;1.30;;
2760;SDS011;15420;48.636;9.798;2022-11-20T10:56:27;1.37;;;1.23;;
2760;SDS011;15420;48.636;9.798;2022-11-20T11:05:17;1.30;;;1.20;;
2760;SDS011;15420;48.636;9.798;2022-11-20T11:08:12;1.35;;;1.25;;
2760;SDS011;15420;48.636;9.798;2022-11-20T11:10:53;1.60;;;1.50;;
2760;SDS011;15420;48.636;9.798;2022-11-20T11:13:24;1.80;;;1.70;;
2760;SDS011;15420;48.636;9.798;2022-11-20T11:15:55;1.83;;;1.73;;
2760;SDS011;15420;48.636;9.798;2022-11-20T11:18:25;1.77;;;1.60;;
2760;SDS011;15420;48.636;9.798;2022-11-20T11:20:52;1.87;;;1.73;;
2760;SDS011;15420;48.636;9.798;2022-11-20T11:23:26;1.70;;;1.60;;
2760;SDS011;15420;48.636;9.798;2022-11-20T11:26:03;1.17;;;1.10;;
2760;SDS011;15420;48.636;9.798;2022-11-20T11:28:52;2.63;;;2.03;;
2760;SDS011;15420;48.636;9.798;2022-11-20T11:31:23;4.17;;;2.90;;
2760;SDS011;15420;48.636;9.798;2022-11-20T11:34:06;2.23;;;1.80;;
2760;SDS011;15420;48.636;9.798;2022-11-20T11:36:36;1.57;;;1.47;;
2760;SDS011;15420;48.636;9.798;2022-11-20T11:39:11;1.30;;;1.20;;
2760;SDS011;15420;48.636;9.798;2022-11-20T11:41:43;1.53;;;1.43;;
2760;SDS011;15420;48.636;9.798;2022-11-20T11:47:25;1.47;;;1.37;;
2760;SDS011;15420;48.636;9.798;2022-11-20T11:55:19;1.70;;;1.60;;
2760;SDS011;15420;48.636;9.798;2022-11-20T11:58:02;1.60;;;1.50;;
2760;SDS011;15420;48.636;9.798;2022-11-20T12:00:36;1.47;;;1.37;;
2760;SDS011;15420;48.636;9.798;2022-11-20T12:03:21;2.70;;;2.07;;
2760;SDS011;15420;48.636;9.798;2022-11-20T12:06:00;3.23;;;2.67;;
2760;SDS011;15420;48.636;9.798;2022-11-20T12:08:50;3.70;;;2.50;;
2760;SDS011;15420;48.636;9.798;2022-11-20T12:16:42;3.17;;;2.07;;
2760;SDS011;15420;48.636;9.798;2022-11-20T12:19:10;2.13;;;1.93;;
2760;SDS011;15420;48.636;9.798;2022-11-20T12:30:15;7.00;;;4.73;;
2760;SDS011;15420;48.636;9.798;2022-11-20T12:54:39;9.00;;;3.70;;
2760;SDS011;15420;48.636;9.798;2022-11-20T13:05:17;2.60;;;2.40;;
2760;SDS011;15420;48.636;9.798;2022-11-20T13:07:57;4.73;;;2.13;;
2760;SDS011;15420;48.636;9.798;2022-11-20T13:10:35;2.97;;;2.20;;
2760;SDS011;15420;48.636;9.798;2022-11-20T13:18:52;2.80;;;2.43;;
2760;SDS011;15420;48.636;9.798;2022-11-20T13:21:21;2.80;;;2.40;;
2760;SDS011;15420;48.636;9.798;2022-11-20T13:24:05;2.40;;;2.20;;
2760;SDS011;15420;48.636;9.798;2022-11-20T13:29:31;3.80;;;3.10;;
2760;SDS011;15420;48.636;9.798;2022-11-20T13:32:06;5.10;;;2.70;;
2760;SDS011;15420;48.636;9.798;2022-11-20T13:34:52;6.60;;;2.60;;
2760;SDS011;15420;48.636;9.798;2022-11-20T13:37:27;4.87;;;2.60;;
2760;SDS011;15420;48.636;9.798;2022-11-20T13:40:05;4.27;;;3.47;;
2760;SDS011;15420;48.636;9.798;2022-11-20T13:42:35;5.40;;;3.60;;
2760;SDS011;15420;48.636;9.798;2022-11-20T13:45:22;2.60;;;2.30;;
2760;SDS011;15420;48.636;9.798;2022-11-20T13:47:50;2.20;;;1.97;;
2760;SDS011;15420;48.636;9.798;2022-11-20T13:50:18;2.80;;;2.50;;
2760;SDS011;15420;48.636;9.798;2022-11-20T14:01:09;3.27;;;1.30;;
2760;SDS011;15420;48.636;9.798;2022-11-20T14:03:48;2.63;;;2.17;;
2760;SDS011;15420;48.636;9.798;2022-11-20T14:06:25;3.10;;;2.03;;
2760;SDS011;15420;48.636;9.798;2022-11-20T14:08:52;7.37;;;4.50;;
2760;SDS011;15420;48.636;9.798;2022-11-20T14:11:20;7.70;;;5.17;;
2760;SDS011;15420;48.636;9.798;2022-11-20T14:16:26;6.60;;;4.20;;
2760;SDS011;15420;48.636;9.798;2022-11-20T14:18:53;5.00;;;3.63;;
2760;SDS011;15420;48.636;9.798;2022-11-20T14:21:28;2.50;;;2.30;;
2760;SDS011;15420;48.636;9.798;2022-11-20T14:24:09;3.20;;;2.10;;
2760;SDS011;15420;48.636;9.798;2022-11-20T14:26:38;3.23;;;2.47;;
2760;SDS011;15420;48.636;9.798;2022-11-20T14:29:26;2.67;;;2.40;;
2760;SDS011;15420;48.636;9.798;2022-11-20T14:31:58;3.03;;;2.03;;
2760;SDS011;15420;48.636;9.798;2022-11-20T14:34:28;2.73;;;2.00;;
2760;SDS011;15420;48.636;9.798;2022-11-20T14:36:57;2.80;;;1.97;;
2760;SDS011;15420;48.636;9.798;2022-11-20T14:41:59;5.07;;;2.40;;
2760;SDS011;15420;48.636;9.798;2022-11-20T14:44:32;5.33;;;2.97;;
2760;SDS011;15420;48.636;9.798;2022-11-20T14:47:02;3.30;;;3.00;;
2760;SDS011;15420;48.636;9.798;2022-11-20T14:49:31;5.43;;;2.47;;
2760;SDS011;15420;48.636;9.798;2022-11-20T14:51:59;3.77;;;3.00;;
2760;SDS011;15420;48.636;9.798;2022-11-20T14:54:34;4.40;;;3.07;;
2760;SDS011;15420;48.636;9.798;2022-11-20T14:59:50;2.83;;;2.27;;
2760;SDS011;15420;48.636;9.798;2022-11-20T15:02:16;2.97;;;2.70;;
2760;SDS011;15420;48.636;9.798;2022-11-20T15:04:48;3.87;;;3.13;;
2760;SDS011;15420;48.636;9.798;2022-11-20T15:07:24;4.20;;;3.47;;
2760;SDS011;15420;48.636;9.798;2022-11-20T15:10:00;3.20;;;2.90;;
2760;SDS011;15420;48.636;9.798;2022-11-20T15:12:29;3.50;;;3.20;;
2760;SDS011;15420;48.636;9.798;2022-11-20T15:14:57;4.20;;;3.80;;
2760;SDS011;15420;48.636;9.798;2022-11-20T15:17:25;6.17;;;4.10;;
2760;SDS011;15420;48.636;9.798;2022-11-20T15:19:52;10.10;;;7.07;;
2760;SDS011;15420;48.636;9.798;2022-11-20T15:22:19;12.27;;;6.97;;
2760;SDS011;15420;48.636;9.798;2022-11-20T15:24:48;7.87;;;5.87;;
2760;SDS011;15420;48.636;9.798;2022-11-20T15:27:14;6.00;;;4.73;;
2760;SDS011;15420;48.636;9.798;2022-11-20T15:29:41;5.73;;;4.03;;
2760;SDS011;15420;48.636;9.798;2022-11-20T15:32:08;3.67;;;2.80;;
2760;SDS011;15420;48.636;9.798;2022-11-20T15:34:38;3.00;;;2.70;;
2760;SDS011;15420;48.636;9.798;2022-11-20T15:37:05;2.73;;;2.20;;
2760;SDS011;15420;48.636;9.798;2022-11-20T15:39:33;4.53;;;2.90;;
2760;SDS011;15420;48.636;9.798;2022-11-20T15:41:59;3.87;;;3.30;;
2760;SDS011;15420;48.636;9.798;2022-11-20T15:44:28;4.00;;;2.87;;
2760;SDS011;15420;48.636;9.798;2022-11-20T15:46:54;3.47;;;2.43;;
2760;SDS011;15420;48.636;9.798;2022-11-20T15:49:20;4.70;;;2.63;;
2760;SDS011;15420;48.636;9.798;2022-11-20T15:51:49;3.40;;;3.10;;
2760;SDS011;15420;48.636;9.798;2022-11-20T15:54:18;7.27;;;4.80;;
2760;SDS011;15420;48.636;9.798;2022-11-20T15:56:47;7.87;;;5.00;;
2760;SDS011;15420;48.636;9.798;2022-11-20T15:59:14;5.70;;;3.90;;
2760;SDS011;15420;48.636;9.798;2022-11-20T16:01:40;5.73;;;3.90;;
2760;SDS011;15420;48.636;9.798;2022-11-20T16:04:11;3.50;;;3.20;;
2760;SDS011;15420;48.636;9.798;2022-11-20T16:06:41;5.23;;;3.10;;
2760;SDS011;15420;48.636;9.798;2022-11-20T16:09:08;5.00;;;3.17;;
2760;SDS011;15420;48.636;9.798;2022-11-20T16:11:34;3.23;;;2.60;;
2760;SDS011;15420;48.636;9.798;2022-11-20T16:14:04;4.63;;;3.33;;
2760;SDS011;15420;48.636;9.798;2022-11-20T16:16:49;5.70;;;3.60;;
2760;SDS011;15420;48.636;9.798;2022-11-20T16:19:16;4.57;;;4.00;;
2760;SDS011;15420;48.636;9.798;2022-11-20T16:21:44;4.80;;;3.93;;
2760;SDS011;15420;48.636;9.798;2022-11-20T16:24:12;4.33;;;3.27;;
2760;SDS011;15420;48.636;9.798;2022-11-20T16:26:44;4.33;;;2.90;;
2760;SDS011;15420;48.636;9.798;2022-11-20T16:29:10;4.13;;;2.77;;
2760;SDS011;15420;48.636;9.798;2022-11-20T16:31:36;4.40;;;2.63;;
2760;SDS011;15420;48.636;9.798;2022-11-20T16:34:04;4.73;;;2.87;;
2760;SDS011;15420;48.636;9.798;2022-11-20T16:36:32;3.63;;;3.30;;
2760;SDS011;15420;48.636;9.798;2022-11-20T16:38:59;11.07;;;6.70;;
2760;SDS011;15420;48.636;9.798;2022-11-20T16:41:27;15.00;;;8.60;;
2760;SDS011;15420;48.636;9.798;2022-11-20T16:43:56;5.33;;;4.17;;
2760;SDS011;15420;48.636;9.798;2022-11-20T16:46:26;5.53;;;4.20;;
2760;SDS011;15420;48.636;9.798;2022-11-20T16:49:01;6.43;;;3.90;;
2760;SDS011;15420;48.636;9.798;2022-11-20T16:51:27;5.27;;;4.77;;
2760;SDS011;15420;48.636;9.798;2022-11-20T16:53:54;42.63;;;28.50;;
2760;SDS011;15420;48.636;9.798;2022-11-20T16:56:25;63.27;;;39.97;;
2760;SDS011;15420;48.636;9.798;2022-11-20T16:58:57;69.53;;;45.13;;
2760;SDS011;15420;48.636;9.798;2022-11-20T17:01:25;39.90;;;27.73;;
2760;SDS011;15420;48.636;9.798;2022-11-20T17:03:53;22.10;;;15.40;;
2760;SDS011;15420;48.636;9.798;2022-11-20T17:06:22;66.33;;;53.80;;
2760;SDS011;15420;48.636;9.798;2022-11-20T17:08:50;58.03;;;43.97;;
2760;SDS011;15420;48.636;9.798;2022-11-20T17:11:20;39.70;;;29.80;;
2760;SDS011;15420;48.636;9.798;2022-11-20T17:13:49;128.63;;;71.30;;
2760;SDS011;15420;48.636;9.798;2022-11-20T17:16:19;206.23;;;110.90;;
2760;SDS011;15420;48.636;9.798;2022-11-20T17:18:48;112.57;;;65.73;;
2760;SDS011;15420;48.636;9.798;2022-11-20T17:21:15;59.93;;;36.00;;
2760;SDS011;15420;48.636;9.798;2022-11-20T17:23:43;49.93;;;33.00;;
2760;SDS011;15420;48.636;9.798;2022-11-20T17:26:13;24.37;;;17.07;;